Time;durP1;ratioP1;P1;durP2;ratioP2;P2;SDS_P1;SDS_P2;PMS_P1;PMS_P2;Temp;Humidity;BMP_temperature;BMP_pressure;BME280_temperature;BME280_humidity;BME280_pressure;Samples;Min_cycle;Max_cycle;Signal;HPM_P1;HPM_P2
2021/09/05 00:01:03;;;;;;;;;;;;;;;-142.75;97.89;77422.72;4987671;28;19956;-76
2021/09/05 00:03:29;;;;;;;;;;;;;;;-142.75;98.46;77432.56;4989742;28;19954;-74
2021/09/05 00:05:54;;;;;;;;;;;;;;;-142.75;98.89;77430.59;4989629;28;19921;-74
2021/09/05 00:08:19;;;;;;;;;;;;;;;-142.75;99.15;77434.53;4989622;28;20466;-76
2021/09/05 00:10:44;;;;;;;;;;;;;;;-142.75;99.53;77434.53;5062873;28;19912;-75
2021/09/05 00:13:09;;;;;;;;;;;;;;;-142.75;99.90;77452.25;5071522;28;20420;-77
2021/09/05 00:15:35;;;;;;;;;;;;;;;-142.75;100.00;77444.38;5071468;28;19920;-76
2021/09/05 00:18:00;;;;;;;;;;;;;;;-142.75;99.97;77450.28;5071252;28;20460;-75
2021/09/05 00:20:25;;;;;;;;;;;;;;;-142.75;99.84;77460.13;5071108;28;19912;-75
2021/09/05 00:22:50;;;;;;;;;;;;;;;-142.75;100.00;77460.13;5019242;28;19914;-76
2021/09/05 00:25:16;;;;;;;;;;;;;;;-142.75;100.00;77452.25;5065427;28;19963;-76
2021/09/05 00:27:41;;;;;;;;;;;;;;;-142.75;100.00;77458.16;5071126;28;20366;-75
2021/09/05 00:30:07;;;;;;;;;;;;;;;-142.75;100.00;77460.13;5070815;28;20318;-76
2021/09/05 00:32:32;;;;;;;;;;;;;;;-142.75;100.00;77462.13;5076730;22;19967;-78
2021/09/05 00:34:57;;;;;;;;;;;;;;;-142.75;99.89;77468.03;5036939;28;20441;-79
2021/09/05 00:37:22;;;;;;;;;;;;;;;-142.75;99.75;77468.03;5039782;28;19914;-79
2021/09/05 00:39:48;;;;;;;;;;;;;;;-142.75;99.56;77466.03;4972223;28;20387;-79
2021/09/05 00:42:20;;;;;;;;;;;;;;;-142.75;99.31;77473.94;5039557;28;19914;-78
2021/09/05 00:44:45;;;;;;;;;;;;;;;-142.75;99.49;77475.91;4972126;28;19914;-79
2021/09/05 00:47:11;;;;;;;;;;;;;;;-142.75;99.33;77479.84;5038650;28;20440;-79
2021/09/05 00:49:36;;;;;;;;;;;;;;;-142.75;99.16;77471.97;5039285;28;19918;-80
2021/09/05 00:52:01;;;;;;;;;;;;;;;-142.75;98.78;77479.84;5039301;28;19914;-78
2021/09/05 00:54:26;;;;;;;;;;;;;;;-142.75;98.70;77477.88;4971902;28;19960;-79
2021/09/05 00:56:51;;;;;;;;;;;;;;;-142.75;98.38;77475.91;4971675;28;19964;-79
2021/09/05 00:59:19;;;;;;;;;;;;;;;-142.75;98.37;77485.75;4971995;28;20324;-79
2021/09/05 01:01:45;;;;;;;;;;;;;;;-142.75;98.68;77485.75;5037910;28;19920;-78
2021/09/05 01:04:10;;;;;;;;;;;;;;;-142.75;98.62;77491.66;4972311;28;19961;-79
2021/09/05 01:06:36;;;;;;;;;;;;;;;-142.75;98.52;77503.47;5071599;28;19914;-78
2021/09/05 01:09:03;;;;;;;;;;;;;;;-142.75;98.26;77499.53;5039165;28;19981;-78
2021/09/05 01:11:31;;;;;;;;;;;;;;;-142.75;97.81;77511.34;4971937;28;19922;-78
2021/09/05 01:13:57;;;;;;;;;;;;;;;-142.75;97.53;77519.22;5038491;28;19914;-78
2021/09/05 01:16:24;;;;;;;;;;;;;;;-142.75;97.99;77534.97;4972006;28;20539;-78
2021/09/05 01:18:49;;;;;;;;;;;;;;;-142.75;98.42;77536.94;4971598;28;19914;-80
2021/09/05 01:21:14;;;;;;;;;;;;;;;-142.75;98.52;77560.56;5036933;28;20052;-79
2021/09/05 01:23:39;;;;;;;;;;;;;;;-142.75;98.94;77562.53;5040716;28;19918;-79
2021/09/05 01:26:05;;;;;;;;;;;;;;;-142.75;99.03;77560.56;5043011;28;20359;-79
2021/09/05 01:28:30;;;;;;;;;;;;;;;-142.75;99.08;77556.63;5042623;28;19961;-78
2021/09/05 01:30:55;;;;;;;;;;;;;;;-142.75;99.34;77554.66;4974654;28;19914;-79
2021/09/05 01:33:20;;;;;;;;;;;;;;;-142.75;99.33;77556.63;5041635;28;20378;-78
2021/09/05 01:35:46;;;;;;;;;;;;;;;-142.75;99.15;77558.59;5042023;28;19917;-78
2021/09/05 01:38:11;;;;;;;;;;;;;;;-142.75;98.45;77558.59;5041855;28;19922;-79
2021/09/05 01:40:36;;;;;;;;;;;;;;;-142.75;97.96;77568.44;5041441;28;19921;-79
2021/09/05 01:43:01;;;;;;;;;;;;;;;-142.75;97.54;77574.34;5041467;28;19914;-78
2021/09/05 01:45:26;;;;;;;;;;;;;;;-142.75;97.53;77570.41;4974955;28;19921;-78
2021/09/05 01:47:52;;;;;;;;;;;;;;;-142.75;97.75;77580.25;5042290;28;20442;-78
2021/09/05 01:50:17;;;;;;;;;;;;;;;-142.75;97.77;77574.34;5042187;28;19921;-78
2021/09/05 01:52:42;;;;;;;;;;;;;;;-142.75;97.42;77582.22;5042464;28;19914;-79
2021/09/05 01:55:07;;;;;;;;;;;;;;;-142.75;97.01;77596.00;5042004;28;19914;-79
2021/09/05 01:57:32;;;;;;;;;;;;;;;-142.75;96.91;77613.72;5041549;28;19914;-79
2021/09/05 01:59:58;;;;;;;;;;;;;;;-142.75;96.71;77613.72;5042030;28;20363;-79
2021/09/05 02:02:23;;;;;;;;;;;;;;;-142.75;96.89;77623.56;5041536;28;19914;-78
2021/09/05 02:04:48;;;;;;;;;;;;;;;-142.75;97.16;77627.50;4974824;28;19937;-77
2021/09/05 02:07:13;;;;;;;;;;;;;;;-142.75;97.69;77629.47;5042066;28;20418;-79
2021/09/05 02:09:38;;;;;;;;;;;;;;;-142.75;98.05;77637.34;5042113;28;19922;-78
2021/09/05 02:12:04;;;;;;;;;;;;;;;-142.75;97.96;77639.31;5041625;28;19917;-78
2021/09/05 02:14:29;;;;;;;;;;;;;;;-142.75;98.49;77645.22;5041810;28;19914;-78
2021/09/05 02:16:54;;;;;;;;;;;;;;;-142.75;98.82;77657.03;4974168;28;19914;-79
2021/09/05 02:19:20;;;;;;;;;;;;;;;-142.75;99.21;77659.00;5044622;28;19979;-79
2021/09/05 02:21:45;;;;;;;;;;;;;;;-142.75;99.60;77660.97;5060874;28;20364;-78
2021/09/05 02:24:10;;;;;;;;;;;;;;;-142.75;99.64;77655.06;5061493;28;19928;-79
2021/09/05 02:26:35;;;;;;;;;;;;;;;-142.75;99.80;77672.78;5061436;28;19917;-78
2021/09/05 02:29:00;;;;;;;;;;;;;;;-142.75;99.77;77666.88;4994624;28;19918;-78
2021/09/05 02:31:26;;;;;;;;;;;;;;;-142.75;99.80;77672.78;4992607;28;19917;-78
2021/09/05 02:33:51;;;;;;;;;;;;;;;-142.75;99.56;77686.56;5061444;28;19914;-78
2021/09/05 02:36:16;;;;;;;;;;;;;;;-142.75;99.44;77698.38;5061351;28;19918;-78
2021/09/05 02:38:41;;;;;;;;;;;;;;;-142.75;99.21;77706.25;5060979;28;19918;-77
2021/09/05 02:41:06;;;;;;;;;;;;;;;-142.75;99.13;77712.16;4993972;28;19914;-78
2021/09/05 02:43:33;;;;;;;;;;;;;;;-142.75;98.94;77714.13;5061611;28;19928;-77
2021/09/05 02:45:58;;;;;;;;;;;;;;;-142.75;99.21;77720.03;5061624;28;19977;-78
2021/09/05 02:48:24;;;;;;;;;;;;;;;-142.75;99.52;77722.00;4994323;28;20298;-79
2021/09/05 02:50:49;;;;;;;;;;;;;;;-142.75;99.32;77723.97;4993583;28;19956;-78
2021/09/05 02:53:14;;;;;;;;;;;;;;;-142.75;99.33;77723.97;5061664;28;19921;-79
2021/09/05 02:55:39;;;;;;;;;;;;;;;-142.75;99.74;77718.06;5062165;28;19918;-78
2021/09/05 02:58:04;;;;;;;;;;;;;;;-142.75;99.89;77718.06;4994570;28;19956;-78
2021/09/05 03:00:29;;;;;;;;;;;;;;;-142.75;100.00;77723.97;4986800;28;19980;-78
2021/09/05 03:02:55;;;;;;;;;;;;;;;-142.75;100.00;77727.94;5043590;28;20380;-79
2021/09/05 03:05:20;;;;;;;;;;;;;;;-142.75;100.00;77725.97;4977421;28;19959;-79
2021/09/05 03:07:45;;;;;;;;;;;;;;;-142.75;100.00;77723.97;5044192;28;19967;-78
2021/09/05 03:10:11;;;;;;;;;;;;;;;-142.75;100.00;77727.94;4976333;28;19945;-78
2021/09/05 03:12:36;;;;;;;;;;;;;;;-142.75;100.00;77720.03;5062576;28;20390;-78
2021/09/05 03:15:01;;;;;;;;;;;;;;;-142.75;100.00;77727.94;4994934;28;19921;-78
2021/09/05 03:17:27;;;;;;;;;;;;;;;-142.75;100.00;77720.03;5061662;28;19996;-79
2021/09/05 03:19:52;;;;;;;;;;;;;;;-142.75;100.00;77720.03;5061796;28;19914;-78
2021/09/05 03:22:18;;;;;;;;;;;;;;;-142.75;100.00;77722.00;5062014;28;20019;-78
2021/09/05 03:24:43;;;;;;;;;;;;;;;-142.75;100.00;77729.88;4995073;28;19939;-78
2021/09/05 03:27:08;;;;;;;;;;;;;;;-142.75;100.00;77737.78;4994500;28;20008;-78
2021/09/05 03:29:33;;;;;;;;;;;;;;;-142.75;100.00;77745.66;5061900;28;20453;-78
2021/09/05 03:31:58;;;;;;;;;;;;;;;-142.75;100.00;77743.69;5062222;28;19967;-78
2021/09/05 03:34:23;;;;;;;;;;;;;;;-142.75;100.00;77751.56;5062322;28;19913;-78
2021/09/05 03:36:49;;;;;;;;;;;;;;;-142.75;100.00;77751.56;4993795;28;20105;-79
2021/09/05 03:39:14;;;;;;;;;;;;;;;-142.75;100.00;77755.50;5062162;28;19914;-78
2021/09/05 03:41:39;;;;;;;;;;;;;;;-142.75;100.00;77763.38;5062375;28;19924;-78
2021/09/05 03:44:04;;;;;;;;;;;;;;;-142.75;100.00;77761.41;5062600;28;20034;-78
2021/09/05 03:46:29;;;;;;;;;;;;;;;-142.75;100.00;77767.31;4993636;28;20484;-79
2021/09/05 03:48:55;;;;;;;;;;;;;;;-142.75;100.00;77767.31;4996494;28;19924;-78
2021/09/05 03:51:20;;;;;;;;;;;;;;;-142.75;100.00;77751.56;4994793;28;19918;-78
2021/09/05 03:53:45;;;;;;;;;;;;;;;-142.75;100.00;77755.50;5063038;28;20322;-79
2021/09/05 03:56:11;;;;;;;;;;;;;;;-142.75;100.00;77749.59;4994871;28;19922;-78
2021/09/05 03:58:36;;;;;;;;;;;;;;;-142.75;100.00;77749.59;4994995;28;19945;-78
2021/09/05 04:01:01;;;;;;;;;;;;;;;-142.75;100.00;77763.38;5061879;28;19918;-78
2021/09/05 04:03:26;;;;;;;;;;;;;;;-142.75;100.00;77761.41;5063131;28;19945;-78
2021/09/05 04:05:51;;;;;;;;;;;;;;;-142.75;100.00;77767.31;5063058;28;20001;-78
2021/09/05 04:08:17;;;;;;;;;;;;;;;-142.75;100.00;77761.41;4995587;28;19918;-78
2021/09/05 04:10:43;;;;;;;;;;;;;;;-142.75;100.00;77757.47;4994786;28;19914;-78
2021/09/05 04:13:09;;;;;;;;;;;;;;;-142.75;100.00;77761.41;5062259;28;19944;-78
2021/09/05 04:15:34;;;;;;;;;;;;;;;-142.75;100.00;77771.25;5062284;28;19918;-78
2021/09/05 04:17:59;;;;;;;;;;;;;;;-142.75;100.00;77777.16;5062902;28;20280;-78
2021/09/05 04:20:25;;;;;;;;;;;;;;;-142.75;100.00;77775.19;5062375;28;19914;-78
2021/09/05 04:22:51;;;;;;;;;;;;;;;-142.75;100.00;77771.25;5063527;28;19936;-78
2021/09/05 04:25:16;;;;;;;;;;;;;;;-142.75;100.00;77767.31;5062152;28;19924;-79
2021/09/05 04:27:41;;;;;;;;;;;;;;;-142.75;100.00;77755.50;5062524;28;19918;-78
2021/09/05 04:30:08;;;;;;;;;;;;;;;-142.75;100.00;77753.53;4995383;28;19988;-78
2021/09/05 04:32:34;;;;;;;;;;;;;;;-142.75;100.00;77751.56;5062382;28;19913;-78
2021/09/05 04:35:00;;;;;;;;;;;;;;;-142.75;100.00;77753.53;4995034;28;19920;-78
2021/09/05 04:37:25;;;;;;;;;;;;;;;-142.75;100.00;77749.59;4996651;28;19914;-78
2021/09/05 04:39:50;;;;;;;;;;;;;;;-142.75;100.00;77755.50;4995662;28;19914;-77
2021/09/05 04:42:16;;;;;;;;;;;;;;;-142.75;100.00;77759.44;5062286;28;19918;-79
2021/09/05 04:44:41;;;;;;;;;;;;;;;-142.75;100.00;77767.31;5062781;28;19921;-78
2021/09/05 04:47:07;;;;;;;;;;;;;;;-142.75;100.00;77765.34;5062583;28;19918;-79
2021/09/05 04:49:32;;;;;;;;;;;;;;;-142.75;100.00;77763.38;5062463;28;19925;-77
2021/09/05 04:51:57;;;;;;;;;;;;;;;-142.75;100.00;77763.38;5061216;28;19984;-78
2021/09/05 04:54:23;;;;;;;;;;;;;;;-142.75;100.00;77765.34;4994109;28;19922;-78
2021/09/05 04:56:48;;;;;;;;;;;;;;;-142.75;100.00;77769.28;5062751;28;20386;-78
2021/09/05 04:59:13;;;;;;;;;;;;;;;-142.75;100.00;77767.31;5060568;28;20438;-79
2021/09/05 05:01:38;;;;;;;;;;;;;;;-142.75;100.00;77767.31;4993734;28;19944;-78
2021/09/05 05:04:04;;;;;;;;;;;;;;;-142.75;100.00;77763.38;4994175;28;19914;-78
2021/09/05 05:06:29;;;;;;;;;;;;;;;-142.75;100.00;77743.69;4994345;28;19918;-78
2021/09/05 05:08:54;;;;;;;;;;;;;;;-142.75;100.00;77739.75;5061160;28;19918;-78
2021/09/05 05:11:19;;;;;;;;;;;;;;;-142.75;100.00;77731.88;5060707;28;20027;-78
2021/09/05 05:13:45;;;;;;;;;;;;;;;-142.75;100.00;77729.88;4975412;28;19924;-78
2021/09/05 05:16:10;;;;;;;;;;;;;;;-142.75;100.00;77735.81;5074038;28;19914;-78
2021/09/05 05:18:35;;;;;;;;;;;;;;;-142.75;100.00;77747.63;4973932;28;21534;-79
2021/09/05 05:21:00;;;;;;;;;;;;;;;-142.75;100.00;77747.63;4991668;28;19958;-79
2021/09/05 05:23:26;;;;;;;;;;;;;;;-142.75;100.00;77751.56;4993087;28;19934;-79
2021/09/05 05:25:51;;;;;;;;;;;;;;;-142.75;100.00;77745.66;5060193;28;19921;-78
2021/09/05 05:28:17;;;;;;;;;;;;;;;-142.75;100.00;77745.66;5059997;28;19928;-77
2021/09/05 05:30:42;;;;;;;;;;;;;;;-142.75;100.00;77747.63;5060061;28;19914;-78
2021/09/05 05:33:07;;;;;;;;;;;;;;;-142.75;100.00;77743.69;4993058;28;19914;-78
2021/09/05 05:35:32;;;;;;;;;;;;;;;-142.75;100.00;77743.69;4993627;28;19921;-79
2021/09/05 05:37:58;;;;;;;;;;;;;;;-142.75;100.00;77723.97;5060865;28;19914;-78
2021/09/05 05:40:25;;;;;;;;;;;;;;;-142.75;100.00;77708.22;4993235;28;19958;-77
2021/09/05 05:42:50;;;;;;;;;;;;;;;-142.75;100.00;77678.69;5060424;28;19917;-78
2021/09/05 05:45:18;;;;;;;;;;;;;;;-142.75;100.00;77641.28;4993939;28;19914;-78
2021/09/05 05:47:44;;;;;;;;;;;;;;;-142.75;100.00;77601.91;4979737;28;19920;-78
2021/09/05 05:50:09;;;;;;;;;;;;;;;-142.75;100.00;77570.41;4974047;28;20600;-78
2021/09/05 05:52:35;;;;;;;;;;;;;;;-142.75;97.87;77534.97;4975595;28;19957;-78
2021/09/05 05:55:00;;;;;;;;;;;;;;;-142.75;95.40;77495.59;5042191;28;19925;-78
2021/09/05 05:57:25;;;;;;;;;;;;;;;-142.75;92.89;77460.13;5045230;28;19914;-78
2021/09/05 05:59:51;;;;;;;;;;;;;;;-142.75;90.47;77408.94;4977003;28;19918;-78
2021/09/05 06:02:18;;;;;;;;;;;;;;;-142.75;87.91;77353.81;5040496;28;19953;-78
2021/09/05 06:04:43;;;;;;;;;;;;;;;-142.75;85.37;77310.50;4974377;28;19914;-79
2021/09/05 06:07:08;;;;;;;;;;;;;;;-142.75;82.61;77271.13;5041016;28;19929;-78
2021/09/05 06:09:33;;;;;;;;;;;;;;;-142.75;81.09;77202.22;5042241;28;20380;-79
2021/09/05 06:11:58;;;;;;;;;;;;;;;-142.75;77.73;77170.72;4976238;28;19922;-79
2021/09/05 06:14:24;;;;;;;;;;;;;;;-142.75;77.32;77158.91;5042478;28;19914;-78
2021/09/05 06:16:49;;;;;;;;;;;;;;;-142.75;75.42;77095.91;4976987;28;20386;-79
2021/09/05 06:19:14;;;;;;;;;;;;;;;-142.75;73.13;76995.50;5045462;28;19914;-79
2021/09/05 06:21:39;;;;;;;;;;;;;;;-142.75;68.90;76883.28;4978545;28;19917;-79
2021/09/05 06:24:04;;;;;;;;;;;;;;;-142.75;66.06;76794.69;5047979;28;19940;-80
2021/09/05 06:26:30;;;;;;;;;;;;;;;-142.75;63.17;76723.84;5065962;28;19921;-80
2021/09/05 06:28:56;;;;;;;;;;;;;;;-142.75;61.45;76660.84;4998911;28;19925;-79
2021/09/05 06:31:21;;;;;;;;;;;;;;;-142.75;59.88;76623.44;5102566;23;19933;-74
2021/09/05 06:33:46;;;;;;;;;;;;;;;-142.75;59.08;76591.94;5112609;28;19919;-74
2021/09/05 06:36:11;;;;;;;;;;;;;;;-142.75;58.01;76574.22;5123116;27;19915;-75
2021/09/05 06:38:36;;;;;;;;;;;;;;;-142.75;57.63;76578.16;5120660;27;20002;-75
2021/09/05 06:41:02;;;;;;;;;;;;;;;-142.75;57.63;76550.59;5098858;28;19919;-75
2021/09/05 06:43:27;;;;;;;;;;;;;;;-142.75;56.85;76621.47;5095635;28;19957;-75
2021/09/05 06:45:52;;;;;;;;;;;;;;;-142.75;57.83;76566.34;5113840;28;19918;-75
2021/09/05 06:48:17;;;;;;;;;;;;;;;-142.75;57.64;76546.66;5113721;28;19915;-75
2021/09/05 06:50:42;;;;;;;;;;;;;;;-142.75;55.97;76495.50;5095206;28;19970;-76
2021/09/05 06:53:08;;;;;;;;;;;;;;;-142.75;55.07;76462.03;5113631;28;19972;-75
2021/09/05 06:55:33;;;;;;;;;;;;;;;-142.75;53.74;76452.19;5113765;28;19919;-75
2021/09/05 06:57:58;;;;;;;;;;;;;;;-142.75;54.16;76444.31;5113807;28;20079;-75
2021/09/05 07:00:23;;;;;;;;;;;;;;;-142.75;53.64;76410.84;5113077;28;19912;-76
2021/09/05 07:02:48;;;;;;;;;;;;;;;-142.75;51.87;76381.31;5095044;28;19916;-74
2021/09/05 07:05:13;;;;;;;;;;;;;;;-142.75;52.43;76340.00;5113387;28;19915;-75
2021/09/05 07:07:38;;;;;;;;;;;;;;;-142.75;50.46;76282.91;5095173;28;19918;-76
2021/09/05 07:10:04;;;;;;;;;;;;;;;-142.75;48.53;76278.97;5094967;28;20420;-76
2021/09/05 07:12:30;;;;;;;;;;;;;;;-142.75;48.49;76369.50;5095107;28;19968;-75
2021/09/05 07:14:55;;;;;;;;;;;;;;;-142.75;50.13;76397.06;5094464;28;19912;-75
2021/09/05 07:17:20;;;;;;;;;;;;;;;-142.75;51.64;76391.16;5085204;28;19927;-75
2021/09/05 07:19:45;;;;;;;;;;;;;;;-142.75;52.85;76424.63;5079771;28;20328;-74
2021/09/05 07:22:10;;;;;;;;;;;;;;;-142.75;49.98;76255.34;5089812;28;19911;-75
2021/09/05 07:24:36;;;;;;;;;;;;;;;-142.75;46.76;76212.03;5113123;28;19919;-75
2021/09/05 07:27:01;;;;;;;;;;;;;;;-142.75;46.17;76267.16;5109653;28;19920;-76
2021/09/05 07:29:26;;;;;;;;;;;;;;;-142.75;47.78;76176.63;5110114;28;19923;-76
2021/09/05 07:31:51;;;;;;;;;;;;;;;-142.75;45.83;76208.09;5094202;28;19922;-75
2021/09/05 07:34:16;;;;;;;;;;;;;;;-142.75;48.52;76231.72;5112848;28;19947;-76
2021/09/05 07:36:42;;;;;;;;;;;;;;;-142.75;47.46;76188.44;5112950;28;19911;-76
2021/09/05 07:39:08;;;;;;;;;;;;;;;-142.75;47.50;76121.50;5112831;28;19919;-75
2021/09/05 07:41:33;;;;;;;;;;;;;;;-142.75;45.00;75983.72;5110850;28;19989;-75
2021/09/05 07:43:58;;;;;;;;;;;;;;;-142.75;43.84;75905.00;5111683;28;20466;-77
2021/09/05 07:46:23;;;;;;;;;;;;;;;-142.75;42.42;75851.88;5112781;28;20291;-75
2021/09/05 07:48:49;;;;;;;;;;;;;;;-142.75;42.38;75865.63;5094586;28;19915;-76
2021/09/05 07:51:14;;;;;;;;;;;;;;;-142.75;43.74;75881.38;5108487;28;20009;-76
2021/09/05 07:53:39;;;;;;;;;;;;;;;-142.75;42.82;75977.81;5108659;28;19918;-76
2021/09/05 07:56:04;;;;;;;;;;;;;;;-142.75;44.17;76009.31;5112666;28;19918;-77
2021/09/05 07:58:30;;;;;;;;;;;;;;;-142.75;42.66;76038.84;5094289;28;20385;-75
2021/09/05 08:00:55;;;;;;;;;;;;;;;-142.75;45.52;76062.47;5111019;28;19970;-75
2021/09/05 08:03:20;;;;;;;;;;;;;;;-142.75;43.95;76107.72;5111339;28;19951;-74
2021/09/05 08:05:45;;;;;;;;;;;;;;;-142.75;43.72;76121.50;5111640;28;19990;-76
2021/09/05 08:08:11;;;;;;;;;;;;;;;-142.75;44.45;76153.00;5111340;28;19957;-75
2021/09/05 08:10:38;;;;;;;;;;;;;;;-142.75;45.72;76320.31;5110710;28;19918;-75
2021/09/05 08:13:03;;;;;;;;;;;;;;;-142.75;49.07;76387.22;5111236;28;19967;-75
2021/09/05 08:15:28;;;;;;;;;;;;;;;-142.75;47.89;76341.97;5092650;28;19915;-75
2021/09/05 08:17:53;;;;;;;;;;;;;;;-142.75;47.87;76294.72;5092993;28;19923;-74
2021/09/05 08:20:20;;;;;;;;;;;;;;;-142.75;47.55;76322.28;5110760;28;19995;-75
2021/09/05 08:22:46;;;;;;;;;;;;;;;-142.75;48.01;76318.34;5111107;28;19923;-75
2021/09/05 08:25:12;;;;;;;;;;;;;;;-142.75;48.25;76251.41;5111209;28;19916;-74
2021/09/05 08:27:37;;;;;;;;;;;;;;;-142.75;48.12;76109.69;5111090;28;20051;-73
2021/09/05 08:30:03;;;;;;;;;;;;;;;-142.75;44.80;75993.56;5110477;28;20490;-75
2021/09/05 08:32:28;;;;;;;;;;;;;;;-142.75;43.13;75845.97;5092151;28;19918;-76
2021/09/05 08:34:53;;;;;;;;;;;;;;;-142.75;42.22;75788.88;5110939;28;19912;-75
2021/09/05 08:37:19;;;;;;;;;;;;;;;-142.75;41.22;75891.22;5092723;28;19965;-75
2021/09/05 08:39:44;;;;;;;;;;;;;;;-142.75;43.34;76011.28;5110843;28;19919;-75
2021/09/05 08:42:09;;;;;;;;;;;;;;;-142.75;42.77;76070.34;5092342;28;19960;-75
2021/09/05 08:44:34;;;;;;;;;;;;;;;-142.75;45.87;76141.19;5092611;28;19950;-75
2021/09/05 08:46:59;;;;;;;;;;;;;;;-142.75;44.92;76149.06;5092444;28;19911;-74
2021/09/05 08:49:26;;;;;;;;;;;;;;;-142.75;44.74;75997.50;5110830;28;20258;-75
2021/09/05 08:51:51;;;;;;;;;;;;;;;-142.75;41.54;75893.19;5110269;28;19923;-75
2021/09/05 08:54:16;;;;;;;;;;;;;;;-142.75;41.59;75952.25;5092301;28;19916;-74
2021/09/05 08:56:41;;;;;;;;;;;;;;;-142.75;42.91;75942.41;5110443;28;20392;-74
2021/09/05 08:59:07;;;;;;;;;;;;;;;-142.75;44.01;76188.44;5110972;28;19916;-75
2021/09/05 09:01:32;;;;;;;;;;;;;;;-142.75;44.38;76176.63;5110090;28;19924;-75
2021/09/05 09:04:09;;;;;;;;;;;;;;;-142.75;45.38;76133.31;5110656;28;19919;-74
2021/09/05 09:06:38;;;;;;;;;;;;;;;-142.75;44.96;76076.22;5110795;28;19911;-75
2021/09/05 09:09:03;;;;;;;;;;;;;;;-142.75;44.21;76056.56;5107633;28;20292;-75
2021/09/05 09:11:49;;;;;;;;;;;;;;;-142.75;44.52;76117.56;5092099;28;19919;-75
2021/09/05 09:14:14;;;;;;;;;;;;;;;-142.75;45.10;75973.88;5109516;28;20020;-75
2021/09/05 09:16:40;;;;;;;;;;;;;;;-142.75;40.84;75865.63;5110377;28;20383;-74
2021/09/05 09:19:05;;;;;;;;;;;;;;;-142.75;41.59;75755.44;5109282;28;19916;-76
2021/09/05 09:21:38;;;;;;;;;;;;;;;-142.75;40.20;75694.41;5107746;28;19922;-75
2021/09/05 09:24:18;;;;;;;;;;;;;;;-142.75;37.09;75641.28;5110494;28;20032;-76
2021/09/05 09:27:04;;;;;;;;;;;;;;;-142.75;38.67;75838.09;5110531;28;19911;-75
2021/09/05 09:29:36;;;;;;;;;;;;;;;-142.75;39.48;75867.59;5091728;28;20391;-75
2021/09/05 09:32:05;;;;;;;;;;;;;;;-142.75;40.25;75938.47;5091833;28;20293;-74
2021/09/05 09:34:40;;;;;;;;;;;;;;;-142.75;39.11;75769.19;5110391;28;19987;-75
2021/09/05 09:37:10;;;;;;;;;;;;;;;-142.75;39.49;75666.88;5110444;28;20585;-75
2021/09/05 09:39:41;;;;;;;;;;;;;;;-142.75;37.78;75662.94;5110418;28;19926;-75
2021/09/05 09:42:07;;;;;;;;;;;;;;;-142.75;38.59;75698.34;5109870;28;19927;-76
2021/09/05 09:44:32;;;;;;;;;;;;;;;-142.75;38.26;75566.50;5112047;28;20045;-75
2021/09/05 09:47:06;;;;;;;;;;;;;;;-142.75;37.29;75507.47;5095805;28;19944;-75
2021/09/05 09:49:45;;;;;;;;;;;;;;;-142.75;37.09;75558.63;5114019;28;19987;-76
2021/09/05 09:52:10;;;;;;;;;;;;;;;-142.75;37.36;75507.47;5114070;28;19912;-75
2021/09/05 09:54:36;;;;;;;;;;;;;;;-142.75;35.78;75385.44;5113910;28;20011;-75
2021/09/05 09:57:02;;;;;;;;;;;;;;;-142.75;33.43;75442.50;5095939;28;19970;-76
2021/09/05 09:59:27;;;;;;;;;;;;;;;-142.75;35.01;75444.47;5113639;28;19923;-76
2021/09/05 10:01:52;;;;;;;;;;;;;;;-142.75;36.20;75617.66;5113736;28;20381;-76
2021/09/05 10:04:17;;;;;;;;;;;;;;;-142.75;37.59;75605.84;5095495;28;20010;-75
2021/09/05 10:06:42;;;;;;;;;;;;;;;-142.75;35.51;75468.09;5113685;28;19918;-76
2021/09/05 10:09:08;;;;;;;;;;;;;;;-142.75;36.66;75452.34;5113928;28;19911;-75
2021/09/05 10:11:34;;;;;;;;;;;;;;;-142.75;35.55;75401.19;5112942;28;19943;-75
2021/09/05 10:14:00;;;;;;;;;;;;;;;-142.75;34.86;75411.03;5113419;28;19912;-75
2021/09/05 10:16:25;;;;;;;;;;;;;;;-142.75;33.94;75350.03;5095417;28;19937;-74
2021/09/05 10:18:51;;;;;;;;;;;;;;;-142.75;33.94;75442.50;5113592;28;19919;-75
2021/09/05 10:21:18;;;;;;;;;;;;;;;-142.75;35.01;75413.00;5113213;28;19912;-75
2021/09/05 10:23:47;;;;;;;;;;;;;;;-142.75;35.54;75660.97;5113699;28;19915;-75
2021/09/05 10:26:14;;;;;;;;;;;;;;;-142.75;36.77;75546.81;5111064;28;20002;-76
2021/09/05 10:28:40;;;;;;;;;;;;;;;-142.75;35.72;75597.97;5090211;28;19921;-75
2021/09/05 10:31:06;;;;;;;;;;;;;;;-142.75;35.58;75450.38;5098652;28;20326;-76
2021/09/05 10:33:33;;;;;;;;;;;;;;;-142.75;32.97;75344.13;5105398;28;19912;-76
2021/09/05 10:36:05;;;;;;;;;;;;;;;-142.75;33.60;75267.38;5094990;28;19951;-76
2021/09/05 10:38:31;;;;;;;;;;;;;;;-142.75;33.94;75289.03;5106479;28;19920;-77
2021/09/05 10:40:58;;;;;;;;;;;;;;;-142.75;32.37;75306.72;5102032;28;19935;-75
2021/09/05 10:43:23;;;;;;;;;;;;;;;-142.75;33.13;75324.44;5110833;28;19911;-75
2021/09/05 10:45:50;;;;;;;;;;;;;;;-142.75;34.26;75279.19;5110890;28;19918;-76
2021/09/05 10:48:27;;;;;;;;;;;;;;;-142.75;32.53;75127.66;5112848;28;19916;-75
2021/09/05 10:50:53;;;;;;;;;;;;;;;-142.75;31.97;75279.19;5112679;28;20006;-77
2021/09/05 10:53:23;;;;;;;;;;;;;;;-142.75;32.76;75379.53;5113065;28;20010;-76
2021/09/05 10:56:14;;;;;;;;;;;;;;;-142.75;34.16;75377.56;5112645;28;19985;-77
2021/09/05 10:58:47;;;;;;;;;;;;;;;-142.75;31.74;75192.59;5086690;28;19922;-76
2021/09/05 11:01:15;;;;;;;;;;;;;;;-142.75;33.38;75340.19;5110881;28;19919;-76
2021/09/05 11:03:59;;;;;;;;;;;;;;;-142.75;34.38;75294.94;5112737;28;19956;-76
2021/09/05 11:06:31;;;;;;;;;;;;;;;-142.75;32.67;75202.44;5094159;28;19923;-74
2021/09/05 11:09:16;;;;;;;;;;;;;;;-142.75;33.32;75466.13;5112700;28;19912;-75
2021/09/05 11:11:55;;;;;;;;;;;;;;;-142.75;34.78;75554.69;5112136;28;19916;-75
2021/09/05 11:14:40;;;;;;;;;;;;;;;-142.75;34.51;75468.09;5093392;28;19912;-75
2021/09/05 11:17:09;;;;;;;;;;;;;;;-142.75;33.50;75379.53;5107940;28;19912;-76
2021/09/05 11:19:34;;;;;;;;;;;;;;;-142.75;32.55;75318.53;5111690;28;19915;-75
2021/09/05 11:22:03;;;;;;;;;;;;;;;-142.75;33.13;75346.09;5111388;28;19916;-75
2021/09/05 11:24:28;;;;;;;;;;;;;;;-142.75;32.66;75202.44;5111565;28;20435;-75
2021/09/05 11:27:03;;;;;;;;;;;;;;;-142.75;32.75;75229.97;5111233;28;19950;-75
2021/09/05 11:29:29;;;;;;;;;;;;;;;-142.75;32.41;75145.38;5107382;28;21112;-75
2021/09/05 11:32:05;;;;;;;;;;;;;;;-142.75;32.12;75245.72;5111118;28;19916;-75
2021/09/05 11:34:30;;;;;;;;;;;;;;;-142.75;34.19;75403.16;5093122;28;19915;-76
2021/09/05 11:36:55;;;;;;;;;;;;;;;-142.75;33.53;75430.72;5108380;28;20006;-76
2021/09/05 11:39:20;;;;;;;;;;;;;;;-142.75;35.17;75720.00;5111274;28;19998;-75
2021/09/05 11:41:51;;;;;;;;;;;;;;;-142.75;37.05;75826.28;5111542;28;20444;-74
2021/09/05 11:44:25;;;;;;;;;;;;;;;-142.75;38.14;75739.69;5110985;28;19965;-75
2021/09/05 11:46:50;;;;;;;;;;;;;;;-142.75;37.79;75853.84;5093215;28;20321;-74
2021/09/05 11:49:15;;;;;;;;;;;;;;;-142.75;38.17;75838.09;5092630;28;19980;-74
2021/09/05 11:51:55;;;;;;;;;;;;;;;-142.75;39.35;75897.13;5110985;28;19925;-74
2021/09/05 11:54:20;;;;;;;;;;;;;;;-142.75;38.29;75877.44;5110929;28;20016;-75
2021/09/05 11:56:49;;;;;;;;;;;;;;;-142.75;37.84;75893.19;5110733;28;20040;-76
2021/09/05 11:59:14;;;;;;;;;;;;;;;-142.75;37.16;75879.41;5110163;28;20030;-75
2021/09/05 12:01:40;;;;;;;;;;;;;;;-142.75;37.11;75895.16;5110448;28;20027;-74
2021/09/05 12:04:05;;;;;;;;;;;;;;;-142.75;37.63;75938.47;5110762;28;19911;-75
2021/09/05 12:06:31;;;;;;;;;;;;;;;-142.75;39.26;75944.38;5110571;28;19958;-76
2021/09/05 12:08:56;;;;;;;;;;;;;;;-142.75;38.50;75910.91;5110508;28;19976;-75
2021/09/05 12:11:21;;;;;;;;;;;;;;;-142.75;37.95;75977.81;5110398;28;19912;-75
2021/09/05 12:13:57;;;;;;;;;;;;;;;-142.75;38.81;75936.50;5107671;28;19911;-75
2021/09/05 12:16:27;;;;;;;;;;;;;;;-142.75;37.02;75926.66;5102396;28;19984;-75
2021/09/05 12:18:59;;;;;;;;;;;;;;;-142.75;38.62;75910.91;5105140;28;19915;-75
2021/09/05 12:21:31;;;;;;;;;;;;;;;-142.75;38.17;75865.63;5109955;28;19919;-75